Time;durP1;ratioP1;P1;durP2;ratioP2;P2;SDS_P1;SDS_P2;PMS_P1;PMS_P2;Temp;Humidity;BMP_temperature;BMP_pressure;BME280_temperature;BME280_humidity;BME280_pressure;Samples;Min_cycle;Max_cycle;Signal;HPM_P1;HPM_P2
2024/01/08 00:00:24;;;;;;;;;18.00;16.00;;;;;1.88;100.00;98754.13;6276986;20;3553390;-44
2024/01/08 00:02:53;;;;;;;;;20.33;18.67;;;;;1.88;100.00;98750.63;6307189;20;3571093;-42
2024/01/08 00:05:22;;;;;;;;;21.33;18.67;;;;;1.85;100.00;98751.59;6277145;20;3582520;-43
2024/01/08 00:07:50;;;;;;;;;16.00;15.50;;;;;1.76;100.00;98759.91;6308517;20;2799289;-44
2024/01/08 00:10:18;;;;;;;;;23.33;19.33;;;;;1.94;100.00;98759.16;6275971;20;3554443;-47
2024/01/08 00:12:47;;;;;;;;;19.67;16.67;;;;;1.83;100.00;98766.69;6308175;20;3572252;-43
2024/01/08 00:15:16;;;;;;;;;27.00;23.67;;;;;1.95;100.00;98775.94;6309644;20;3567000;-43
2024/01/08 00:17:44;;;;;;;;;22.00;15.67;;;;;1.72;100.00;98771.56;6309761;20;3542979;-41
2024/01/08 00:20:13;;;;;;;;;19.33;19.33;;;;;1.79;100.00;98775.69;6309277;20;3556501;-42
2024/01/08 00:22:41;;;;;;;;;21.00;13.67;;;;;1.74;100.00;98772.38;6307707;20;3562784;-42
2024/01/08 00:25:09;;;;;;;;;32.50;22.50;;;;;1.82;100.00;98774.69;6304730;20;2841129;-42
2024/01/08 00:27:37;;;;;;;;;22.00;20.00;;;;;1.49;100.00;98783.06;6278196;20;2822191;-41
2024/01/08 00:30:07;;;;;;;;;28.67;20.00;;;;;1.69;100.00;98788.41;6275770;20;3576462;-40
2024/01/08 00:32:36;;;;;;;;;27.00;19.67;;;;;1.86;100.00;98793.03;6306187;20;3580600;-43
2024/01/08 00:35:05;;;;;;;;;20.67;18.67;;;;;1.66;100.00;98780.63;6306229;20;3573235;-43
2024/01/08 00:37:38;;;;;;;;;19.00;15.67;;;;;1.81;100.00;98792.34;6308523;20;2816986;-41
2024/01/08 00:40:10;;;;;;;;;33.33;18.67;;;;;1.77;100.00;98790.75;6331693;20;3592986;-42
2024/01/08 00:42:39;;;;;;;;;22.67;19.00;;;;;1.70;100.00;98789.28;6276015;20;3567175;-41
2024/01/08 00:45:08;;;;;;;;;26.67;19.67;;;;;1.76;100.00;98794.31;6309369;20;3571239;-42
2024/01/08 00:47:37;;;;;;;;;22.00;19.33;;;;;1.77;100.00;98789.91;6305259;20;3549341;-41
2024/01/08 00:50:13;;;;;;;;;23.17;19.17;;;;;1.81;100.00;98804.72;6332022;20;2838148;-41
2024/01/08 00:52:42;;;;;;;;;20.00;17.00;;;;;1.83;100.00;98793.16;6306967;20;3559736;-42
2024/01/08 00:55:11;;;;;;;;;33.00;25.50;;;;;1.72;100.00;98798.88;6305259;20;2500340;-41
2024/01/08 00:57:40;;;;;;;;;22.67;20.00;;;;;1.78;100.00;98805.72;6275146;20;3558593;-41
2024/01/08 01:00:09;;;;;;;;;27.00;26.00;;;;;2.05;100.00;98797.56;6306476;20;2843080;-41
2024/01/08 01:02:40;;;;;;;;;23.67;22.00;;;;;1.84;100.00;98800.16;6276921;20;3562823;-41
2024/01/08 01:05:08;;;;;;;;;20.00;16.00;;;;;1.87;100.00;98794.75;6306468;20;2817017;-41
2024/01/08 01:07:37;;;;;;;;;23.00;19.33;;;;;1.80;100.00;98793.28;6275023;20;3564916;-41
2024/01/08 01:10:06;;;;;;;;;25.67;19.67;;;;;1.63;100.00;98795.72;6274845;20;3555472;-41
2024/01/08 01:12:35;;;;;;;;;19.00;18.33;;;;;1.51;100.00;98797.94;6308009;20;3547188;-41
2024/01/08 01:15:04;;;;;;;;;18.33;15.67;;;;;1.82;100.00;98809.97;6309424;20;3561719;-41
2024/01/08 01:17:34;;;;;;;;;15.80;14.20;;;;;1.95;100.00;98805.91;6331021;20;2814877;-43
2024/01/08 01:20:04;;;;;;;;;20.33;16.00;;;;;2.06;100.00;98816.03;6275501;20;3552486;-41
2024/01/08 01:22:33;;;;;;;;;25.33;17.00;;;;;1.92;100.00;98813.97;6308225;20;3578369;-41
2024/01/08 01:25:02;;;;;;;;;15.00;13.00;;;;;1.97;100.00;98816.41;6331437;20;2791901;-41
2024/01/08 01:27:31;;;;;;;;;18.67;15.67;;;;;1.88;100.00;98816.78;6275123;20;3560841;-42
2024/01/08 01:30:00;;;;;;;;;20.00;16.33;;;;;2.00;100.00;98821.56;6307247;20;3558628;-41
2024/01/08 01:32:29;;;;;;;;;22.00;18.00;;;;;2.01;100.00;98822.47;6307646;20;3566516;-40
2024/01/08 01:34:59;;;;;;;;;17.20;16.40;;;;;1.97;100.00;98822.59;6332701;20;2817090;-41
2024/01/08 01:37:28;;;;;;;;;16.33;13.00;;;;;2.07;100.00;98819.53;6277622;20;2801447;-41
2024/01/08 01:39:57;;;;;;;;;18.00;13.00;;;;;1.96;98.65;98814.69;6310090;20;2800318;-41
2024/01/08 01:42:24;;;;;;;;;19.50;17.50;;;;;1.90;100.00;98821.09;6272447;20;2830548;-42
2024/01/08 01:44:56;;;;;;;;;20.50;18.83;;;;;1.91;100.00;98820.16;6308607;20;1839986;-41
2024/01/08 01:47:25;;;;;;;;;21.00;14.67;;;;;2.13;100.00;98817.53;6305232;20;3555484;-41
2024/01/08 01:49:54;;;;;;;;;20.00;15.33;;;;;2.04;100.00;98815.25;6306635;20;3553392;-40
2024/01/08 01:52:23;;;;;;;;;13.00;6.00;;;;;2.08;99.62;98824.78;6306706;20;2775458;-41
2024/01/08 01:54:52;;;;;;;;;22.67;17.67;;;;;2.13;100.00;98832.53;6274449;20;3569010;-42
2024/01/08 01:57:20;;;;;;;;;14.50;13.00;;;;;2.05;98.45;98829.34;6305331;20;2788825;-41
2024/01/08 01:59:49;;;;;;;;;20.00;20.00;;;;;2.14;98.21;98829.81;6275979;20;2827400;-41
2024/01/08 02:02:20;;;;;;;;;17.20;15.20;;;;;1.86;96.87;98822.13;6297432;20;2825288;-41
2024/01/08 02:04:50;;;;;;;;;16.40;16.00;;;;;2.02;96.63;98832.09;6292779;20;2828439;-41
2024/01/08 02:07:19;;;;;;;;;20.33;16.00;;;;;1.97;93.66;98827.88;6274701;20;3553529;-41
2024/01/08 02:09:50;;;;;;;;;20.71;15.86;;;;;1.81;93.17;98837.34;6344220;20;1829593;-41
2024/01/08 02:12:20;;;;;;;;;15.50;12.50;;;;;2.07;90.72;98835.44;6304949;20;2794076;-41
2024/01/08 02:14:49;;;;;;;;;18.67;16.67;;;;;1.91;91.82;98843.13;6274169;20;3558626;-43
2024/01/08 02:17:18;;;;;;;;;16.00;13.00;;;;;2.07;89.68;98844.22;6332654;20;2800416;-42
2024/01/08 02:19:46;;;;;;;;;12.00;12.00;;;;;2.08;88.89;98839.78;6276337;20;2789838;-42
2024/01/08 02:22:16;;;;;;;;;16.00;12.20;;;;;2.00;88.09;98847.19;6300912;20;2793125;-43
2024/01/08 02:24:44;;;;;;;;;16.00;12.00;;;;;1.95;87.57;98847.41;6279328;20;2675298;-41
2024/01/08 02:27:14;;;;;;;;;12.50;12.25;;;;;1.86;88.96;98845.94;6328295;20;2823222;-42
2024/01/08 02:29:43;;;;;;;;;19.33;17.00;;;;;1.88;89.42;98849.41;6304570;20;3575237;-41
2024/01/08 02:32:13;;;;;;;;;14.67;14.67;;;;;2.10;89.33;98851.19;6304461;20;2798358;-42
2024/01/08 02:34:42;;;;;;;;;18.00;11.75;;;;;1.78;87.90;98845.41;6322257;20;1826378;-41
2024/01/08 02:37:10;;;;;;;;;15.50;13.00;;;;;1.95;87.37;98848.25;6307123;20;2790975;-42
2024/01/08 02:39:39;;;;;;;;;16.60;15.80;;;;;1.89;88.75;98848.47;6299491;20;2817028;-41
2024/01/08 02:42:08;;;;;;;;;17.33;14.33;;;;;1.93;88.90;98851.88;6275428;20;3538862;-41
2024/01/08 02:44:37;;;;;;;;;19.00;12.67;;;;;1.95;90.43;98861.50;6304387;20;2796227;-41
2024/01/08 02:47:05;;;;;;;;;19.00;16.00;;;;;1.82;88.81;98857.59;6305361;20;2825276;-41
2024/01/08 02:49:33;;;;;;;;;22.33;19.00;;;;;1.92;88.24;98861.63;6273734;20;3565884;-44
2024/01/08 02:52:01;;;;;;;;;25.50;21.00;;;;;2.01;88.16;98870.97;6301244;20;2830452;-42
2024/01/08 02:54:29;;;;;;;;;32.00;27.00;;;;;1.87;88.09;98873.28;6272079;20;2500332;-42
2024/01/08 02:56:59;;;;;;;;;15.50;14.00;;;;;2.02;86.89;98882.41;6278080;20;2604464;-42
2024/01/08 02:59:27;;;;;;;;;27.33;18.33;;;;;2.00;88.49;98884.25;6306382;20;3589907;-43
2024/01/08 03:01:57;;;;;;;;;143.75;131.25;;;;;1.48;88.48;98888.00;6278388;20;4463883;-42
2024/01/08 03:04:26;;;;;;;;;42.00;35.67;;;;;1.89;88.98;98888.19;6270216;20;2869016;-44
2024/01/08 03:06:54;;;;;;;;;76.00;59.50;;;;;1.64;89.14;98898.88;6303925;20;2508646;-45
2024/01/08 03:09:24;;;;;;;;;18.00;15.60;;;;;1.85;86.34;98891.88;6302893;20;2824340;-42
2024/01/08 03:11:53;;;;;;;;;19.00;15.67;;;;;1.96;86.07;98894.09;6278902;20;3550221;-44
2024/01/08 03:14:22;;;;;;;;;15.67;14.33;;;;;1.87;87.86;98908.56;6309420;20;2806638;-42
2024/01/08 03:16:51;;;;;;;;;60.50;44.00;;;;;1.60;88.37;98899.03;6310063;20;2880641;-43
2024/01/08 03:19:21;;;;;;;;;15.20;13.80;;;;;1.80;87.73;98908.88;6302813;20;2820061;-42
2024/01/08 03:21:49;;;;;;;;;14.33;12.67;;;;;1.79;86.69;98897.44;6278378;20;2792027;-44
2024/01/08 03:24:18;;;;;;;;;19.00;13.67;;;;;1.91;86.08;98904.88;6307395;20;2798310;-44
2024/01/08 03:26:48;;;;;;;;;45.33;35.00;;;;;1.76;88.01;98908.09;6309560;20;3605519;-44
2024/01/08 03:29:16;;;;;;;;;19.00;16.00;;;;;1.81;89.94;98903.50;6307484;20;3556513;-43
2024/01/08 03:31:46;;;;;;;;;17.20;15.40;;;;;1.87;87.64;98903.28;6331780;20;2814956;-43
2024/01/08 03:34:14;;;;;;;;;23.00;15.00;;;;;2.07;87.68;98906.91;6274940;20;2824440;-43
2024/01/08 03:36:46;;;;;;;;;19.00;15.40;;;;;1.96;86.98;98921.44;6304873;20;2831679;-42
2024/01/08 03:39:17;;;;;;;;;20.20;15.00;;;;;1.72;88.34;98917.94;6305928;20;2798237;-43
2024/01/08 03:41:46;;;;;;;;;15.67;15.00;;;;;1.78;86.66;98919.50;6281616;20;3522528;-42
2024/01/08 03:44:14;;;;;;;;;12.00;12.00;;;;;1.81;85.72;98929.09;6305306;20;2673678;-43
2024/01/08 03:46:43;;;;;;;;;19.33;17.67;;;;;1.75;86.30;98932.84;6279997;20;2835715;-43
2024/01/08 03:49:11;;;;;;;;;8.00;6.00;;;;;1.69;85.80;98927.81;6310438;20;3448267;-43
2024/01/08 03:51:41;;;;;;;;;23.00;16.75;;;;;1.67;85.40;98935.78;6333438;20;2867966;-43
2024/01/08 03:54:11;;;;;;;;;14.00;12.00;;;;;1.63;85.46;98934.16;6310065;20;2792014;-43
2024/01/08 03:56:40;;;;;;;;;16.50;12.50;;;;;1.51;84.58;98930.19;6280381;20;2786744;-43
2024/01/08 03:59:13;;;;;;;;;12.83;12.83;;;;;1.95;84.40;98940.03;6313634;20;1814926;-43
2024/01/08 04:01:46;;;;;;;;;14.71;11.71;;;;;1.91;84.60;98936.63;6320035;20;1811832;-43
2024/01/08 04:04:15;;;;;;;;;12.00;12.00;;;;;1.75;84.54;98939.00;6309100;20;2789937;-43
2024/01/08 04:06:45;;;;;;;;;17.80;12.20;;;;;1.63;85.25;98939.44;6301867;20;2797236;-43
2024/01/08 04:09:17;;;;;;;;;15.50;8.00;;;;;1.65;84.37;98942.91;6277547;20;2785931;-43
2024/01/08 04:11:45;;;;;;;;;16.00;15.00;;;;;1.69;83.25;98948.97;6275477;20;2801348;-44
2024/01/08 04:14:13;;;;;;;;;11.00;11.00;;;;;1.80;84.25;98952.06;6276256;20;2774207;-43
2024/01/08 04:16:41;;;;;;;;;11.50;11.50;;;;;1.61;83.45;98951.03;6278259;20;2784631;-43
2024/01/08 04:19:09;;;;;;;;;20.50;15.00;;;;;1.54;84.53;98953.88;6279781;20;2810788;-43
2024/01/08 04:21:37;;;;;;;;;14.50;13.00;;;;;1.79;84.14;98962.69;6279741;20;2787799;-43
2024/01/08 04:24:05;;;;;;;;;16.00;9.00;;;;;1.63;83.45;98973.00;6278263;20;2777364;-43
2024/01/08 04:26:35;;;;;;;;;17.40;11.40;;;;;1.65;83.37;98968.50;6304637;20;2805531;-43
2024/01/08 04:29:03;;;;;;;;;18.50;16.00;;;;;1.77;83.78;98970.72;6277490;20;2799369;-43
2024/01/08 04:31:31;;;;;;;;;14.50;12.00;;;;;1.69;83.95;98976.28;6280105;20;2787813;-44
2024/01/08 04:34:00;;;;;;;;;61.33;48.00;;;;;1.48;84.01;98977.06;6275973;20;3625399;-43
2024/01/08 04:36:29;;;;;;;;;8.00;6.50;;;;;1.61;84.48;98977.50;6328951;20;1818078;-43
2024/01/08 04:38:57;;;;;;;;;18.00;12.00;;;;;1.56;83.89;98984.75;6309537;20;2794032;-41
2024/01/08 04:41:25;;;;;;;;;16.50;12.00;;;;;1.73;84.38;98987.59;6280314;20;2802369;-43
2024/01/08 04:43:53;;;;;;;;;12.00;11.00;;;;;1.72;84.18;98992.03;6277426;20;2782777;-42
2024/01/08 04:46:24;;;;;;;;;13.57;13.57;;;;;1.63;87.61;98999.44;6315087;20;1827404;-42
2024/01/08 04:48:56;;;;;;;;;26.71;15.71;;;;;1.57;83.34;99010.25;6349470;20;1812885;-43
2024/01/08 04:51:26;;;;;;;;;12.17;9.00;;;;;1.67;83.96;99003.72;6349410;20;1817063;-43
2024/01/08 04:53:55;;;;;;;;;15.50;11.50;;;;;1.58;84.09;99009.34;6276420;20;2798420;-42
2024/01/08 04:56:29;;;;;;;;;14.67;11.00;;;;;1.50;84.27;99006.97;6317098;20;1816052;-43
2024/01/08 04:58:57;;;;;;;;;14.50;11.00;;;;;1.60;82.72;99012.78;6277623;20;2783677;-43
2024/01/08 05:01:25;;;;;;;;;11.50;8.00;;;;;1.24;84.14;99014.03;6279365;20;2750289;-43
2024/01/08 05:03:53;;;;;;;;;19.00;12.00;;;;;1.32;85.34;99019.06;6276402;20;2806916;-43
2024/01/08 05:06:21;;;;;;;;;22.50;13.50;;;;;1.47;86.55;99018.50;6276896;20;2804729;-43
2024/01/08 05:08:49;;;;;;;;;22.00;11.50;;;;;1.27;86.54;99027.16;6276104;20;2812943;-43
2024/01/08 05:11:17;;;;;;;;;17.50;13.00;;;;;1.43;84.47;99029.28;6279022;20;2797144;-43
2024/01/08 05:13:48;;;;;;;;;12.71;12.29;;;;;1.33;85.66;99036.66;6312646;20;1812769;-45
2024/01/08 05:16:16;;;;;;;;;8.00;4.00;;;;;1.52;84.61;99043.03;6310049;20;3447119;-44
2024/01/08 05:18:43;;;;;;;;;4.33;0.00;;;;;1.51;83.55;99046.59;6309778;20;2726500;-43
2024/01/08 05:21:15;;;;;;;;;20.33;15.00;;;;;1.52;84.36;99048.31;6307668;20;3556555;-43
2024/01/08 05:23:43;;;;;;;;;13.50;12.00;;;;;1.45;83.11;99049.47;6305954;20;2789976;-44
2024/01/08 05:26:13;;;;;;;;;18.60;14.20;;;;;1.45;82.74;99057.41;6298526;20;2804494;-43
2024/01/08 05:28:44;;;;;;;;;12.67;9.00;;;;;1.50;83.35;99060.75;6315495;20;1822203;-42
2024/01/08 05:31:11;;;;;;;;;15.00;13.50;;;;;1.48;84.08;99062.56;6277523;20;2797194;-42
2024/01/08 05:33:39;;;;;;;;;12.00;10.00;;;;;1.30;85.34;99057.91;6272623;20;2775338;-41
2024/01/08 05:36:08;;;;;;;;;13.50;13.50;;;;;1.60;85.09;99065.69;6275904;20;2796103;-42
2024/01/08 05:38:36;;;;;;;;;16.00;14.50;;;;;1.54;83.47;99070.28;6277624;20;2796106;-41
2024/01/08 05:41:04;;;;;;;;;12.00;12.00;;;;;1.63;84.29;99070.88;6276434;20;2790011;-41
2024/01/08 05:43:37;;;;;;;;;19.00;15.00;;;;;1.43;84.74;99069.81;6272979;20;2802464;-41
2024/01/08 05:46:09;;;;;;;;;15.43;14.43;;;;;1.59;85.66;99074.56;6313784;20;1829479;-42
2024/01/08 05:48:40;;;;;;;;;14.86;12.00;;;;;1.44;84.90;99081.25;6345579;20;1816038;-43
2024/01/08 05:51:11;;;;;;;;;53.83;44.67;;;;;1.23;85.11;99085.47;6329723;20;3598211;-41
2024/01/08 05:53:39;;;;;;;;;9.50;8.00;;;;;1.29;85.42;99086.16;6274607;20;2757611;-44
2024/01/08 05:56:07;;;;;;;;;16.50;12.00;;;;;1.38;87.12;99086.75;6307280;20;2798173;-43
2024/01/08 05:58:35;;;;;;;;;16.50;16.50;;;;;1.52;86.88;99090.63;6275275;20;2825371;-41
2024/01/08 06:01:06;;;;;;;;;24.50;18.33;;;;;1.38;86.94;99092.03;6298591;20;2836801;-41
2024/01/08 06:03:35;;;;;;;;;26.00;21.33;;;;;1.39;85.90;99099.91;6306602;20;3582576;-40
2024/01/08 06:06:05;;;;;;;;;21.60;17.20;;;;;1.42;86.31;99097.19;6327837;20;2823297;-43
2024/01/08 06:08:37;;;;;;;;;26.83;21.67;;;;;1.56;86.09;99106.44;6297618;20;2839978;-43
2024/01/08 06:11:05;;;;;;;;;26.00;21.00;;;;;1.53;85.87;99096.81;6304814;20;2828416;-42
2024/01/08 06:13:32;;;;;;;;;14.00;11.00;;;;;1.49;86.06;99111.91;6273840;20;2781538;-44
2024/01/08 06:16:00;;;;;;;;;14.00;14.00;;;;;1.31;86.82;99112.53;6274377;20;2810755;-43
2024/01/08 06:18:33;;;;;;;;;16.00;12.67;;;;;1.49;85.41;99118.97;6275686;20;2802442;-42
2024/01/08 06:21:01;;;;;;;;;14.50;13.00;;;;;1.45;85.03;99125.28;6311978;20;2783669;-44
2024/01/08 06:23:29;;;;;;;;;19.00;12.50;;;;;1.33;86.01;99123.94;6273151;20;2805511;-42
2024/01/08 06:25:57;;;;;;;;;13.50;12.50;;;;;1.27;85.92;99124.13;6275905;20;2788863;-43
2024/01/08 06:28:27;;;;;;;;;15.00;11.40;;;;;1.37;87.52;99132.59;6301048;20;2790251;-42
2024/01/08 06:30:56;;;;;;;;;16.00;14.50;;;;;1.23;87.05;99128.63;6274294;20;2794034;-42
2024/01/08 06:33:26;;;;;;;;;13.33;11.00;;;;;1.26;86.03;99130.31;6316395;20;1819009;-42
2024/01/08 06:35:54;;;;;;;;;14.00;14.00;;;;;1.29;84.43;99133.75;6266780;20;2783656;-43
2024/01/08 06:38:22;;;;;;;;;15.00;12.00;;;;;1.44;84.97;99148.22;6275738;20;2784698;-42
2024/01/08 06:40:52;;;;;;;;;15.00;13.00;;;;;1.37;85.60;99144.09;6297901;20;2785716;-42
2024/01/08 06:43:21;;;;;;;;;17.60;16.40;;;;;1.47;85.95;99156.06;6295508;20;2825317;-42
2024/01/08 06:45:53;;;;;;;;;22.43;13.14;;;;;1.38;84.94;99156.38;6313106;20;1820547;-44
2024/01/08 06:48:22;;;;;;;;;18.40;13.00;;;;;1.34;85.65;99165.31;6330453;20;2807578;-43
2024/01/08 06:50:51;;;;;;;;;20.67;14.67;;;;;1.44;84.92;99163.25;6275045;20;3523739;-44
2024/01/08 06:53:19;;;;;;;;;15.50;14.00;;;;;1.35;86.07;99172.34;6303638;20;2782649;-42
2024/01/08 06:55:47;;;;;;;;;19.00;12.00;;;;;1.41;85.91;99180.06;6273161;20;2797133;-42
2024/01/08 06:58:16;;;;;;;;;28.00;18.33;;;;;1.37;84.67;99183.75;6270077;20;3599247;-42
2024/01/08 07:00:44;;;;;;;;;19.33;11.67;;;;;1.33;85.94;99184.75;6273026;20;2808801;-42
2024/01/08 07:03:14;;;;;;;;;14.33;14.33;;;;;1.46;85.60;99187.88;6303548;20;2789891;-42
2024/01/08 07:05:43;;;;;;;;;17.33;12.00;;;;;1.42;84.68;99192.41;6301602;20;3525366;-42
2024/01/08 07:08:15;;;;;;;;;22.50;17.00;;;;;1.51;85.19;99200.03;6305315;20;2826374;-42
2024/01/08 07:10:43;;;;;;;;;22.00;15.00;;;;;1.49;84.27;99193.91;6274329;20;2831649;-43
2024/01/08 07:13:12;;;;;;;;;20.33;15.00;;;;;1.53;85.00;99198.19;6272973;20;2804521;-42
2024/01/08 07:15:48;;;;;;;;;20.50;13.50;;;;;1.51;85.11;99202.66;6303031;20;2790909;-44
2024/01/08 07:18:19;;;;;;;;;18.60;15.00;;;;;1.50;84.94;99202.72;6296242;20;2816982;-42
2024/01/08 07:20:47;;;;;;;;;17.00;16.50;;;;;1.41;85.63;99208.31;6277322;20;2837779;-42
2024/01/08 07:23:16;;;;;;;;;17.67;15.00;;;;;1.44;85.44;99205.56;6274399;20;2801424;-43
2024/01/08 07:25:44;;;;;;;;;19.50;13.00;;;;;1.50;86.04;99215.94;6307620;20;2797161;-43
2024/01/08 07:28:13;;;;;;;;;14.00;9.00;;;;;1.57;85.71;99208.69;6273680;20;2795205;-43
2024/01/08 07:30:41;;;;;;;;;34.50;29.50;;;;;1.57;87.27;99213.97;6272393;20;2856594;-42
2024/01/08 07:33:10;;;;;;;;;22.67;16.00;;;;;1.56;86.18;99222.84;6272743;20;3567480;-42
2024/01/08 07:35:41;;;;;;;;;14.33;12.50;;;;;1.67;85.29;99228.63;6342940;20;1819085;-42
2024/01/08 07:38:09;;;;;;;;;26.50;21.50;;;;;1.56;86.42;99234.28;6273541;20;2824361;-42
2024/01/08 07:40:39;;;;;;;;;20.60;16.00;;;;;1.74;85.50;99243.41;6297506;20;2811805;-43
2024/01/08 07:43:07;;;;;;;;;135.50;117.50;;;;;1.57;86.41;99237.78;6269261;20;2551371;-42
2024/01/08 07:45:35;;;;;;;;;18.50;15.00;;;;;1.85;85.69;99245.69;6276740;20;2804455;-42
2024/01/08 07:48:03;;;;;;;;;22.00;12.00;;;;;1.71;85.89;99256.72;6279679;20;2813281;-43
2024/01/08 07:50:32;;;;;;;;;23.67;21.00;;;;;1.78;84.91;99260.03;6279530;20;3567032;-42
2024/01/08 07:53:01;;;;;;;;;27.00;24.00;;;;;1.92;84.75;99263.97;6276984;20;3573363;-42
2024/01/08 07:55:29;;;;;;;;;15.50;14.50;;;;;1.91;83.70;99267.50;6277908;20;2804560;-44
2024/01/08 07:57:58;;;;;;;;;21.33;15.00;;;;;1.90;84.33;99275.53;6281027;20;2804436;-43
2024/01/08 08:00:27;;;;;;;;;21.67;18.33;;;;;1.79;83.69;99275.00;6310226;20;3558773;-42
2024/01/08 08:02:56;;;;;;;;;23.33;17.00;;;;;1.76;84.85;99278.59;6309189;20;3571121;-42
2024/01/08 08:05:24;;;;;;;;;37.00;19.00;;;;;1.88;84.35;99286.16;6310369;20;2854487;-44
2024/01/08 08:07:59;;;;;;;;;16.60;15.00;;;;;1.99;83.28;99291.09;6298920;20;2812784;-44
2024/01/08 08:10:27;;;;;;;;;21.00;14.50;;;;;2.08;83.23;99295.19;6280710;20;2798206;-43
2024/01/08 08:12:55;;;;;;;;;14.00;11.50;;;;;1.84;84.30;99297.75;6276128;20;2792134;-43
2024/01/08 08:15:23;;;;;;;;;18.50;13.00;;;;;1.93;83.24;99297.47;6279145;20;2798219;-42
2024/01/08 08:17:51;;;;;;;;;19.00;12.00;;;;;1.86;83.00;99297.69;6279088;20;2809729;-42
2024/01/08 08:20:20;;;;;;;;;19.33;14.33;;;;;2.01;82.96;99299.84;6276947;20;3551385;-42
2024/01/08 08:22:49;;;;;;;;;20.67;16.00;;;;;2.07;83.15;99302.28;6310308;20;3568036;-43
2024/01/08 08:25:19;;;;;;;;;20.00;16.00;;;;;2.15;83.73;99302.91;6308499;20;3551280;-43
2024/01/08 08:27:48;;;;;;;;;31.50;28.00;;;;;2.31;83.64;99310.31;6309600;20;2675282;-43
2024/01/08 08:30:19;;;;;;;;;44.00;41.00;;;;;2.27;84.16;99311.38;6275745;20;2504418;-44
2024/01/08 08:32:47;;;;;;;;;16.00;16.00;;;;;2.09;82.29;99305.75;6276373;20;2820142;-42
2024/01/08 08:35:16;;;;;;;;;18.50;14.50;;;;;2.34;82.90;99319.06;6276168;20;2795084;-43
2024/01/08 08:37:46;;;;;;;;;16.00;15.60;;;;;2.28;82.63;99318.38;6304064;20;2816969;-42
2024/01/08 08:40:21;;;;;;;;;15.00;15.00;;;;;2.24;80.71;99322.94;6276421;20;2810713;-43
2024/01/08 08:42:51;;;;;;;;;36.67;34.00;;;;;2.22;83.86;99323.91;6274014;20;3599257;-42
2024/01/08 08:45:20;;;;;;;;;20.00;13.00;;;;;2.44;82.54;99338.13;6308263;20;3541976;-43
2024/01/08 08:47:50;;;;;;;;;33.00;32.00;;;;;1.93;83.66;99323.06;6305558;20;2854440;-42
2024/01/08 08:50:19;;;;;;;;;13.00;10.50;;;;;2.30;82.55;99333.31;6275761;20;2780498;-43
2024/01/08 08:52:47;;;;;;;;;17.00;13.50;;;;;2.09;83.89;99323.44;6276031;20;2800333;-42
2024/01/08 08:55:15;;;;;;;;;15.00;13.00;;;;;2.30;83.17;99321.84;6279720;20;2812814;-42
2024/01/08 08:57:44;;;;;;;;;35.00;31.50;;;;;2.20;85.08;99338.03;6277195;20;2854517;-42
2024/01/08 09:00:12;;;;;;;;;20.00;16.00;;;;;1.89;84.33;99332.88;6274569;20;2818128;-42
2024/01/08 09:02:49;;;;;;;;;87.33;67.67;;;;;1.87;85.12;99345.31;6279946;20;3642966;-42
2024/01/08 09:05:18;;;;;;;;;19.33;15.67;;;;;2.26;85.45;99341.41;6310643;20;3547167;-44
2024/01/08 09:08:03;;;;;;;;;11.00;9.50;;;;;2.19;82.69;99346.06;6309463;20;2766065;-44
2024/01/08 09:10:32;;;;;;;;;16.00;12.00;;;;;2.38;82.62;99351.59;6282868;20;2777516;-42
2024/01/08 09:13:00;;;;;;;;;20.00;13.00;;;;;2.29;81.09;99342.19;6275572;20;2804466;-42
2024/01/08 09:15:28;;;;;;;;;16.00;12.00;;;;;2.34;82.23;99344.66;6279629;20;2498342;-43
2024/01/08 09:17:55;;;;;;;;;13.50;12.00;;;;;2.24;81.73;99352.06;6306748;20;2794028;-43
2024/01/08 09:20:24;;;;;;;;;30.00;26.00;;;;;2.20;83.10;99345.13;6276978;20;2500349;-42
2024/01/08 09:22:52;;;;;;;;;26.50;20.00;;;;;2.42;81.32;99353.22;6278743;20;2829558;-43
2024/01/08 09:25:21;;;;;;;;;31.50;31.50;;;;;2.53;79.40;99358.19;6278555;20;2854447;-42
2024/01/08 09:27:49;;;;;;;;;10.00;10.00;;;;;2.41;78.62;99355.00;6276803;20;2794046;-42
2024/01/08 09:30:17;;;;;;;;;12.50;10.00;;;;;2.32;79.88;99359.75;6274364;20;2789896;-41
2024/01/08 09:32:47;;;;;;;;;31.00;29.00;;;;;2.40;82.88;99357.72;6274957;20;2500239;-43
2024/01/08 09:35:16;;;;;;;;;15.50;13.00;;;;;2.45;79.00;99357.53;6276700;20;2781546;-42
2024/01/08 09:37:45;;;;;;;;;59.50;48.50;;;;;2.71;80.35;99352.19;6276637;20;2867983;-43
2024/01/08 09:40:12;;;;;;;;;13.50;11.50;;;;;2.35;78.56;99355.22;6276172;20;2782670;-43
2024/01/08 09:42:40;;;;;;;;;13.00;12.00;;;;;2.73;79.38;99352.16;6276006;20;2777341;-42
2024/01/08 09:45:13;;;;;;;;;34.50;30.00;;;;;2.53;78.28;99358.19;6275963;20;2845214;-41
2024/01/08 09:47:42;;;;;;;;;23.67;20.33;;;;;2.57;78.16;99362.44;6277047;20;3567987;-44
2024/01/08 09:50:13;;;;;;;;;19.50;19.00;;;;;2.50;79.54;99355.59;6311302;20;2830646;-45
2024/01/08 09:52:44;;;;;;;;;15.00;13.00;;;;;2.63;78.93;99362.22;6276325;20;2794132;-42
2024/01/08 09:55:13;;;;;;;;;21.67;16.67;;;;;2.61;77.72;99349.03;6273741;20;3562767;-42
2024/01/08 09:57:42;;;;;;;;;21.67;18.33;;;;;2.61;78.65;99353.47;6307526;20;3548224;-43
2024/01/08 10:00:11;;;;;;;;;29.50;26.00;;;;;2.65;78.31;99355.06;6278552;20;2848203;-43
2024/01/08 10:02:41;;;;;;;;;18.00;16.33;;;;;2.59;78.48;99358.81;6276154;20;3557552;-42
2024/01/08 10:05:10;;;;;;;;;20.67;16.00;;;;;2.64;78.70;99351.56;6277036;20;3563178;-42
2024/01/08 10:07:40;;;;;;;;;24.00;19.00;;;;;2.51;78.13;99357.34;6309984;20;3550347;-42
2024/01/08 10:10:09;;;;;;;;;41.00;35.00;;;;;2.79;79.81;99352.84;6306411;20;2869150;-42
2024/01/08 10:12:43;;;;;;;;;25.83;20.00;;;;;2.82;77.40;99347.41;6299954;20;2837779;-43
2024/01/08 10:15:18;;;;;;;;;92.00;74.50;;;;;2.32;80.94;99363.28;6307686;20;2895081;-42
2024/01/08 10:17:51;;;;;;;;;15.57;13.14;;;;;2.80;77.82;99357.19;6314352;20;1806546;-43
2024/01/08 10:20:20;;;;;;;;;15.33;12.67;;;;;2.90;78.54;99359.50;6307891;20;2816985;-43
2024/01/08 10:23:09;;;;;;;;;23.67;18.00;;;;;3.06;79.11;99360.72;6308268;20;3554759;-43
2024/01/08 10:25:39;;;;;;;;;23.33;18.00;;;;;3.00;78.12;99360.91;6305710;20;3548241;-41
2024/01/08 10:28:11;;;;;;;;;24.33;19.00;;;;;2.68;78.10;99354.97;6273364;20;3556587;-42
2024/01/08 10:30:41;;;;;;;;;17.00;13.00;;;;;2.96;78.60;99361.97;6307379;20;2793001;-42
2024/01/08 10:33:09;;;;;;;;;15.50;11.50;;;;;2.82;78.41;99358.03;6273167;20;2792474;-42
2024/01/08 10:35:40;;;;;;;;;39.33;29.33;;;;;3.13;78.32;99362.19;6276207;20;3607355;-42
2024/01/08 10:38:10;;;;;;;;;21.00;16.00;;;;;3.06;77.35;99363.38;6273174;20;3556516;-41
2024/01/08 10:40:38;;;;;;;;;14.50;11.50;;;;;3.07;78.00;99362.44;6306769;20;2790906;-43
2024/01/08 10:43:08;;;;;;;;;18.33;16.67;;;;;3.00;80.97;99368.88;6275747;20;3558715;-42
2024/01/08 10:45:37;;;;;;;;;26.00;22.00;;;;;3.55;78.82;99364.19;6275154;20;3440908;-42
2024/01/08 10:48:22;;;;;;;;;14.00;12.00;;;;;3.42;76.52;99362.91;6307239;20;2790938;-42
2024/01/08 10:50:54;;;;;;;;;14.00;14.00;;;;;3.40;75.97;99355.03;6297728;20;2811058;-42
2024/01/08 10:53:41;;;;;;;;;19.00;18.00;;;;;3.32;77.19;99366.84;6272495;20;2500277;-43
2024/01/08 10:56:20;;;;;;;;;24.00;17.67;;;;;3.39;78.56;99363.88;6273921;20;3574287;-42
2024/01/08 10:59:04;;;;;;;;;42.00;33.00;;;;;3.45;79.85;99368.09;6276456;20;2857618;-42
2024/01/08 11:01:33;;;;;;;;;27.00;24.50;;;;;3.90;77.15;99365.47;6274943;20;2832925;-42
2024/01/08 11:04:05;;;;;;;;;59.50;46.00;;;;;2.84;79.89;99365.91;6273085;20;2863894;-43
2024/01/08 11:06:40;;;;;;;;;73.67;57.00;;;;;2.86;80.97;99370.22;6272973;20;3638070;-42
2024/01/08 11:09:31;;;;;;;;;28.50;28.50;;;;;2.68;80.82;99365.56;6305576;20;2858627;-41
2024/01/08 11:12:03;;;;;;;;;38.50;29.00;;;;;3.08;81.60;99367.69;6274391;20;2863826;-42
2024/01/08 11:14:33;;;;;;;;;44.33;35.00;;;;;3.36;80.63;99371.13;6273331;20;2877428;-42
2024/01/08 11:17:02;;;;;;;;;60.00;48.00;;;;;2.88;78.38;99371.97;6311357;20;2864877;-43
2024/01/08 11:19:31;;;;;;;;;26.50;19.00;;;;;3.63;77.85;99380.69;6278176;20;2835700;-41